< < Back
Terminal Aerodrome Forecast


Current Version              Previous Versions:   1  2  3  4  5  6  7  8  9  

Terminal Aerodrome Forecast

515
FTUS42 KJAX 071913 AAB
TAFJAX
TAF AMD
KJAX 071913Z 0719/0818 12008KT P6SM VCTS SCT025 BKN040CB
      TEMPO 0719/0721 VRB15G25KT 3SM TSRA
     FM072300 17007KT P6SM VCSH SCT050 BKN150 OVC250
     FM080100 VRB03KT P6SM FEW050 SCT150 BKN250=

Latest METAR

707
SAUS80 KWBC 080200
MTRJAX
METAR KJAX 080156Z 27004KT 10SM FEW050 BKN130 BKN250 23/22 A3016 RMK AO2
SLP214 T02280217


USA.gov is the U.S. government's official web portal to all federal, state and local government web resources and services.